sensor_id;sensor_type;location;lat;lon;timestamp;P1;P2;P0
44045;PMS7003;29709;52.396;16.796;2023-12-04T00:03:08;6;5;3
44045;PMS7003;29709;52.396;16.796;2023-12-04T00:06:22;7;4;3
44045;PMS7003;29709;52.396;16.796;2023-12-04T00:09:36;9;5;3
44045;PMS7003;29709;52.396;16.796;2023-12-04T00:12:49;7;5;2
44045;PMS7003;29709;52.396;16.796;2023-12-04T00:16:03;4;4;2
44045;PMS7003;29709;52.396;16.796;2023-12-04T00:19:18;4;4;3
44045;PMS7003;29709;52.396;16.796;2023-12-04T00:22:32;7;7;6
44045;PMS7003;29709;52.396;16.796;2023-12-04T00:25:45;5;5;3
44045;PMS7003;29709;52.396;16.796;2023-12-04T00:28:59;7;5;3
44045;PMS7003;29709;52.396;16.796;2023-12-04T00:32:12;9;4;2
44045;PMS7003;29709;52.396;16.796;2023-12-04T00:35:26;5;4;3
44045;PMS7003;29709;52.396;16.796;2023-12-04T00:38:39;8;6;3
44045;PMS7003;29709;52.396;16.796;2023-12-04T00:41:53;6;5;2
44045;PMS7003;29709;52.396;16.796;2023-12-04T00:45:06;9;5;3
44045;PMS7003;29709;52.396;16.796;2023-12-04T00:48:20;7;5;3
44045;PMS7003;29709;52.396;16.796;2023-12-04T00:54:55;3;3;2
44045;PMS7003;29709;52.396;16.796;2023-12-04T00:58:13;6;5;3
44045;PMS7003;29709;52.396;16.796;2023-12-04T01:01:29;2;2;0
44045;PMS7003;29709;52.396;16.796;2023-12-04T01:04:43;6;5;4
44045;PMS7003;29709;52.396;16.796;2023-12-04T01:07:57;11;6;4
44045;PMS7003;29709;52.396;16.796;2023-12-04T01:11:10;7;5;2
44045;PMS7003;29709;52.396;16.796;2023-12-04T01:14:24;6;5;3
44045;PMS7003;29709;52.396;16.796;2023-12-04T01:17:37;7;5;4
44045;PMS7003;29709;52.396;16.796;2023-12-04T01:20:50;5;4;3
44045;PMS7003;29709;52.396;16.796;2023-12-04T01:24:04;3;3;1
44045;PMS7003;29709;52.396;16.796;2023-12-04T01:27:18;9;5;4
44045;PMS7003;29709;52.396;16.796;2023-12-04T01:30:31;4;3;2
44045;PMS7003;29709;52.396;16.796;2023-12-04T01:33:45;5;5;3
44045;PMS7003;29709;52.396;16.796;2023-12-04T01:36:58;4;2;0
44045;PMS7003;29709;52.396;16.796;2023-12-04T01:40:11;3;2;1
44045;PMS7003;29709;52.396;16.796;2023-12-04T01:43:25;5;3;2
44045;PMS7003;29709;52.396;16.796;2023-12-04T01:46:38;3;3;2
44045;PMS7003;29709;52.396;16.796;2023-12-04T01:49:52;3;3;2
44045;PMS7003;29709;52.396;16.796;2023-12-04T01:53:05;8;5;3
44045;PMS7003;29709;52.396;16.796;2023-12-04T01:56:19;4;3;2
44045;PMS7003;29709;52.396;16.796;2023-12-04T01:59:33;8;3;2
44045;PMS7003;29709;52.396;16.796;2023-12-04T02:02:48;3;3;2
44045;PMS7003;29709;52.396;16.796;2023-12-04T02:06:02;4;3;2
44045;PMS7003;29709;52.396;16.796;2023-12-04T02:09:18;6;4;2
44045;PMS7003;29709;52.396;16.796;2023-12-04T02:12:31;7;6;3
44045;PMS7003;29709;52.396;16.796;2023-12-04T02:15:45;5;4;2
44045;PMS7003;29709;52.396;16.796;2023-12-04T02:19:03;3;2;0
44045;PMS7003;29709;52.396;16.796;2023-12-04T02:22:18;10;6;3
44045;PMS7003;29709;52.396;16.796;2023-12-04T02:25:31;5;4;2
44045;PMS7003;29709;52.396;16.796;2023-12-04T02:28:47;6;6;4
44045;PMS7003;29709;52.396;16.796;2023-12-04T02:32:07;5;4;3
44045;PMS7003;29709;52.396;16.796;2023-12-04T02:35:24;8;5;3
44045;PMS7003;29709;52.396;16.796;2023-12-04T02:38:42;7;6;4
44045;PMS7003;29709;52.396;16.796;2023-12-04T02:41:56;4;2;1
44045;PMS7003;29709;52.396;16.796;2023-12-04T02:45:10;6;3;2
44045;PMS7003;29709;52.396;16.796;2023-12-04T02:48:23;9;7;4
44045;PMS7003;29709;52.396;16.796;2023-12-04T02:51:37;7;5;3
44045;PMS7003;29709;52.396;16.796;2023-12-04T02:54:54;6;6;4
44045;PMS7003;29709;52.396;16.796;2023-12-04T02:58:08;8;6;3
44045;PMS7003;29709;52.396;16.796;2023-12-04T03:01:21;7;6;3
44045;PMS7003;29709;52.396;16.796;2023-12-04T03:04:35;7;6;4
44045;PMS7003;29709;52.396;16.796;2023-12-04T03:07:48;8;7;3
44045;PMS7003;29709;52.396;16.796;2023-12-04T03:11:02;11;6;5
44045;PMS7003;29709;52.396;16.796;2023-12-04T03:14:16;5;5;3
44045;PMS7003;29709;52.396;16.796;2023-12-04T03:17:29;11;7;6
44045;PMS7003;29709;52.396;16.796;2023-12-04T03:20:43;8;8;4
44045;PMS7003;29709;52.396;16.796;2023-12-04T03:23:56;8;6;4
44045;PMS7003;29709;52.396;16.796;2023-12-04T03:27:10;6;4;3
44045;PMS7003;29709;52.396;16.796;2023-12-04T03:30:23;10;7;5
44045;PMS7003;29709;52.396;16.796;2023-12-04T03:33:36;6;5;4
44045;PMS7003;29709;52.396;16.796;2023-12-04T03:36:50;7;5;3
44045;PMS7003;29709;52.396;16.796;2023-12-04T03:40:04;8;7;4
44045;PMS7003;29709;52.396;16.796;2023-12-04T03:43:19;10;7;4
44045;PMS7003;29709;52.396;16.796;2023-12-04T03:46:32;12;8;6
44045;PMS7003;29709;52.396;16.796;2023-12-04T03:49:45;7;6;3
44045;PMS7003;29709;52.396;16.796;2023-12-04T03:52:59;6;5;4
44045;PMS7003;29709;52.396;16.796;2023-12-04T03:56:12;7;4;1
44045;PMS7003;29709;52.396;16.796;2023-12-04T03:59:25;4;1;0
44045;PMS7003;29709;52.396;16.796;2023-12-04T04:02:39;9;7;5
44045;PMS7003;29709;52.396;16.796;2023-12-04T04:05:53;11;8;5
44045;PMS7003;29709;52.396;16.796;2023-12-04T04:09:07;10;10;7
44045;PMS7003;29709;52.396;16.796;2023-12-04T04:12:20;9;7;5
44045;PMS7003;29709;52.396;16.796;2023-12-04T04:15:34;11;9;6
44045;PMS7003;29709;52.396;16.796;2023-12-04T04:18:47;12;11;7
44045;PMS7003;29709;52.396;16.796;2023-12-04T04:22:01;12;8;4
44045;PMS7003;29709;52.396;16.796;2023-12-04T04:25:15;9;8;5
44045;PMS7003;29709;52.396;16.796;2023-12-04T04:28:28;8;6;4
44045;PMS7003;29709;52.396;16.796;2023-12-04T04:31:42;9;8;5
44045;PMS7003;29709;52.396;16.796;2023-12-04T04:34:55;11;8;6
44045;PMS7003;29709;52.396;16.796;2023-12-04T04:38:09;11;8;4
44045;PMS7003;29709;52.396;16.796;2023-12-04T04:41:23;10;9;5
44045;PMS7003;29709;52.396;16.796;2023-12-04T04:44:38;7;6;5
44045;PMS7003;29709;52.396;16.796;2023-12-04T04:47:51;11;7;4
44045;PMS7003;29709;52.396;16.796;2023-12-04T04:51:05;12;10;8
44045;PMS7003;29709;52.396;16.796;2023-12-04T04:54:18;6;5;1
44045;PMS7003;29709;52.396;16.796;2023-12-04T04:57:32;17;12;6
44045;PMS7003;29709;52.396;16.796;2023-12-04T05:00:45;9;8;6
44045;PMS7003;29709;52.396;16.796;2023-12-04T05:04:01;13;11;7
44045;PMS7003;29709;52.396;16.796;2023-12-04T05:07:14;11;8;5
44045;PMS7003;29709;52.396;16.796;2023-12-04T05:10:29;10;9;6
44045;PMS7003;29709;52.396;16.796;2023-12-04T05:13:42;6;3;2
44045;PMS7003;29709;52.396;16.796;2023-12-04T05:16:56;9;9;6
44045;PMS7003;29709;52.396;16.796;2023-12-04T05:20:09;9;9;5
44045;PMS7003;29709;52.396;16.796;2023-12-04T05:23:23;8;6;5
44045;PMS7003;29709;52.396;16.796;2023-12-04T05:26:36;8;7;4
44045;PMS7003;29709;52.396;16.796;2023-12-04T05:29:50;10;7;5
44045;PMS7003;29709;52.396;16.796;2023-12-04T05:33:04;14;12;8
44045;PMS7003;29709;52.396;16.796;2023-12-04T05:36:17;9;8;7
44045;PMS7003;29709;52.396;16.796;2023-12-04T05:39:31;11;10;7
44045;PMS7003;29709;52.396;16.796;2023-12-04T05:42:44;11;10;6
44045;PMS7003;29709;52.396;16.796;2023-12-04T05:45:58;11;10;8
44045;PMS7003;29709;52.396;16.796;2023-12-04T05:49:12;13;9;7
44045;PMS7003;29709;52.396;16.796;2023-12-04T05:52:25;12;11;8
44045;PMS7003;29709;52.396;16.796;2023-12-04T05:55:39;12;10;8
44045;PMS7003;29709;52.396;16.796;2023-12-04T05:58:53;9;8;5
44045;PMS7003;29709;52.396;16.796;2023-12-04T06:02:06;13;11;9
44045;PMS7003;29709;52.396;16.796;2023-12-04T06:05:20;10;9;7
44045;PMS7003;29709;52.396;16.796;2023-12-04T06:08:33;13;12;8
44045;PMS7003;29709;52.396;16.796;2023-12-04T06:11:47;18;16;10
44045;PMS7003;29709;52.396;16.796;2023-12-04T06:15:00;18;14;10
44045;PMS7003;29709;52.396;16.796;2023-12-04T06:18:13;18;15;9
44045;PMS7003;29709;52.396;16.796;2023-12-04T06:21:27;8;5;2
44045;PMS7003;29709;52.396;16.796;2023-12-04T06:24:41;16;12;9
44045;PMS7003;29709;52.396;16.796;2023-12-04T06:27:55;14;12;7
44045;PMS7003;29709;52.396;16.796;2023-12-04T06:31:09;15;14;10
44045;PMS7003;29709;52.396;16.796;2023-12-04T06:34:24;14;13;10
44045;PMS7003;29709;52.396;16.796;2023-12-04T06:37:38;11;8;3
44045;PMS7003;29709;52.396;16.796;2023-12-04T06:40:55;13;10;7
44045;PMS7003;29709;52.396;16.796;2023-12-04T06:44:09;18;16;10
44045;PMS7003;29709;52.396;16.796;2023-12-04T06:47:24;7;4;3
44045;PMS7003;29709;52.396;16.796;2023-12-04T06:50:38;14;12;9
44045;PMS7003;29709;52.396;16.796;2023-12-04T06:53:53;9;9;6
44045;PMS7003;29709;52.396;16.796;2023-12-04T06:57:06;11;10;7
44045;PMS7003;29709;52.396;16.796;2023-12-04T07:00:20;10;9;6
44045;PMS7003;29709;52.396;16.796;2023-12-04T07:03:34;9;6;2
44045;PMS7003;29709;52.396;16.796;2023-12-04T07:06:49;10;9;7
44045;PMS7003;29709;52.396;16.796;2023-12-04T07:10:03;14;13;9
44045;PMS7003;29709;52.396;16.796;2023-12-04T07:13:17;21;18;13
44045;PMS7003;29709;52.396;16.796;2023-12-04T07:16:30;13;10;8
44045;PMS7003;29709;52.396;16.796;2023-12-04T07:19:44;14;13;8
44045;PMS7003;29709;52.396;16.796;2023-12-04T07:22:57;12;10;7
44045;PMS7003;29709;52.396;16.796;2023-12-04T07:26:11;13;12;7
44045;PMS7003;29709;52.396;16.796;2023-12-04T07:29:24;18;15;11
44045;PMS7003;29709;52.396;16.796;2023-12-04T07:32:38;14;13;10
44045;PMS7003;29709;52.396;16.796;2023-12-04T07:35:52;12;8;6
44045;PMS7003;29709;52.396;16.796;2023-12-04T07:39:05;11;10;6
44045;PMS7003;29709;52.396;16.796;2023-12-04T07:42:19;15;11;7
44045;PMS7003;29709;52.396;16.796;2023-12-04T07:45:33;9;6;3
44045;PMS7003;29709;52.396;16.796;2023-12-04T07:48:49;9;9;6
44045;PMS7003;29709;52.396;16.796;2023-12-04T07:52:03;16;15;10
44045;PMS7003;29709;52.396;16.796;2023-12-04T07:55:16;15;14;8
44045;PMS7003;29709;52.396;16.796;2023-12-04T07:58:31;20;16;12
44045;PMS7003;29709;52.396;16.796;2023-12-04T08:01:45;14;10;8
44045;PMS7003;29709;52.396;16.796;2023-12-04T08:04:58;12;10;8
44045;PMS7003;29709;52.396;16.796;2023-12-04T08:08:13;8;7;3
44045;PMS7003;29709;52.396;16.796;2023-12-04T08:11:27;16;15;7
44045;PMS7003;29709;52.396;16.796;2023-12-04T08:14:41;16;15;10
44045;PMS7003;29709;52.396;16.796;2023-12-04T08:17:54;19;15;10
44045;PMS7003;29709;52.396;16.796;2023-12-04T08:21:10;16;14;10
44045;PMS7003;29709;52.396;16.796;2023-12-04T08:24:24;15;12;7
44045;PMS7003;29709;52.396;16.796;2023-12-04T08:27:38;17;13;10
44045;PMS7003;29709;52.396;16.796;2023-12-04T08:30:51;13;11;7
44045;PMS7003;29709;52.396;16.796;2023-12-04T08:34:05;14;14;10
44045;PMS7003;29709;52.396;16.796;2023-12-04T08:37:18;15;14;10
44045;PMS7003;29709;52.396;16.796;2023-12-04T08:40:34;4;3;0
44045;PMS7003;29709;52.396;16.796;2023-12-04T08:43:47;12;10;8
44045;PMS7003;29709;52.396;16.796;2023-12-04T08:47:01;5;3;1
44045;PMS7003;29709;52.396;16.796;2023-12-04T08:50:14;4;2;1
44045;PMS7003;29709;52.396;16.796;2023-12-04T08:53:28;16;13;9
44045;PMS7003;29709;52.396;16.796;2023-12-04T08:56:41;24;20;16
44045;PMS7003;29709;52.396;16.796;2023-12-04T08:59:57;8;3;1
44045;PMS7003;29709;52.396;16.796;2023-12-04T09:03:11;18;15;11
44045;PMS7003;29709;52.396;16.796;2023-12-04T09:06:25;12;11;7
44045;PMS7003;29709;52.396;16.796;2023-12-04T09:09:38;12;11;7
44045;PMS7003;29709;52.396;16.796;2023-12-04T09:13:27;13;9;6
44045;PMS7003;29709;52.396;16.796;2023-12-04T09:16:43;15;12;9
44045;PMS7003;29709;52.396;16.796;2023-12-04T09:19:58;16;12;8
44045;PMS7003;29709;52.396;16.796;2023-12-04T09:23:11;15;13;9
44045;PMS7003;29709;52.396;16.796;2023-12-04T09:26:25;18;15;10
44045;PMS7003;29709;52.396;16.796;2023-12-04T09:29:40;21;14;9
44045;PMS7003;29709;52.396;16.796;2023-12-04T09:32:54;33;28;20
44045;PMS7003;29709;52.396;16.796;2023-12-04T09:36:08;31;25;17
44045;PMS7003;29709;52.396;16.796;2023-12-04T09:39:21;18;16;11
44045;PMS7003;29709;52.396;16.796;2023-12-04T09:42:36;20;16;11
44045;PMS7003;29709;52.396;16.796;2023-12-04T09:45:50;18;17;10
44045;PMS7003;29709;52.396;16.796;2023-12-04T09:49:04;17;16;10
44045;PMS7003;29709;52.396;16.796;2023-12-04T09:52:18;17;14;10
44045;PMS7003;29709;52.396;16.796;2023-12-04T09:55:33;18;16;10
44045;PMS7003;29709;52.396;16.796;2023-12-04T09:58:48;19;16;10
44045;PMS7003;29709;52.396;16.796;2023-12-04T10:02:09;7;7;4
44045;PMS7003;29709;52.396;16.796;2023-12-04T10:05:22;11;10;7
44045;PMS7003;29709;52.396;16.796;2023-12-04T10:08:36;17;15;10
44045;PMS7003;29709;52.396;16.796;2023-12-04T10:11:50;16;14;9
44045;PMS7003;29709;52.396;16.796;2023-12-04T10:15:11;19;16;11
44045;PMS7003;29709;52.396;16.796;2023-12-04T10:18:25;13;13;7
44045;PMS7003;29709;52.396;16.796;2023-12-04T10:21:47;17;16;11
44045;PMS7003;29709;52.396;16.796;2023-12-04T10:28:24;12;10;7
44045;PMS7003;29709;52.396;16.796;2023-12-04T10:31:37;12;9;7
44045;PMS7003;29709;52.396;16.796;2023-12-04T10:34:51;11;11;8
44045;PMS7003;29709;52.396;16.796;2023-12-04T10:38:05;16;13;11
44045;PMS7003;29709;52.396;16.796;2023-12-04T10:41:20;17;16;12
44045;PMS7003;29709;52.396;16.796;2023-12-04T10:44:33;9;9;7
44045;PMS7003;29709;52.396;16.796;2023-12-04T10:47:48;17;14;9
44045;PMS7003;29709;52.396;16.796;2023-12-04T10:51:04;14;11;7
44045;PMS7003;29709;52.396;16.796;2023-12-04T10:54:18;10;9;5
44045;PMS7003;29709;52.396;16.796;2023-12-04T10:57:31;12;12;9
44045;PMS7003;29709;52.396;16.796;2023-12-04T11:00:50;15;12;8
44045;PMS7003;29709;52.396;16.796;2023-12-04T11:04:10;15;12;7
44045;PMS7003;29709;52.396;16.796;2023-12-04T11:07:30;14;13;10
44045;PMS7003;29709;52.396;16.796;2023-12-04T11:14:11;6;5;2
44045;PMS7003;29709;52.396;16.796;2023-12-04T11:17:31;20;19;14
44045;PMS7003;29709;52.396;16.796;2023-12-04T11:20:51;29;24;18
44045;PMS7003;29709;52.396;16.796;2023-12-04T11:24:09;11;11;7
44045;PMS7003;29709;52.396;16.796;2023-12-04T11:27:24;14;12;9
44045;PMS7003;29709;52.396;16.796;2023-12-04T11:30:39;6;4;1
44045;PMS7003;29709;52.396;16.796;2023-12-04T11:34:01;15;12;9
44045;PMS7003;29709;52.396;16.796;2023-12-04T11:37:16;19;15;11
44045;PMS7003;29709;52.396;16.796;2023-12-04T11:40:29;14;11;7
44045;PMS7003;29709;52.396;16.796;2023-12-04T11:43:45;15;13;8
44045;PMS7003;29709;52.396;16.796;2023-12-04T11:47:04;11;10;6
44045;PMS7003;29709;52.396;16.796;2023-12-04T11:50:19;15;12;8
44045;PMS7003;29709;52.396;16.796;2023-12-04T11:53:37;13;12;7
44045;PMS7003;29709;52.396;16.796;2023-12-04T11:56:59;16;12;9
44045;PMS7003;29709;52.396;16.796;2023-12-04T12:00:22;14;11;7
44045;PMS7003;29709;52.396;16.796;2023-12-04T12:03:38;15;13;8
44045;PMS7003;29709;52.396;16.796;2023-12-04T12:06:52;10;8;6
44045;PMS7003;29709;52.396;16.796;2023-12-04T12:10:10;11;10;5
44045;PMS7003;29709;52.396;16.796;2023-12-04T12:13:26;11;10;8
44045;PMS7003;29709;52.396;16.796;2023-12-04T12:19:59;10;8;7
44045;PMS7003;29709;52.396;16.796;2023-12-04T12:26:32;8;6;5
44045;PMS7003;29709;52.396;16.796;2023-12-04T12:29:46;13;12;7
44045;PMS7003;29709;52.396;16.796;2023-12-04T12:32:59;13;11;7
44045;PMS7003;29709;52.396;16.796;2023-12-04T12:36:13;14;12;9
44045;PMS7003;29709;52.396;16.796;2023-12-04T12:39:30;13;11;7
44045;PMS7003;29709;52.396;16.796;2023-12-04T12:42:44;12;9;7
44045;PMS7003;29709;52.396;16.796;2023-12-04T12:45:58;13;11;8
44045;PMS7003;29709;52.396;16.796;2023-12-04T12:49:13;15;9;6
44045;PMS7003;29709;52.396;16.796;2023-12-04T12:52:31;18;13;9
44045;PMS7003;29709;52.396;16.796;2023-12-04T12:55:47;19;16;10
44045;PMS7003;29709;52.396;16.796;2023-12-04T12:59:02;15;12;9
44045;PMS7003;29709;52.396;16.796;2023-12-04T13:02:15;19;17;10
44045;PMS7003;29709;52.396;16.796;2023-12-04T13:05:29;16;12;8
44045;PMS7003;29709;52.396;16.796;2023-12-04T13:08:43;14;13;9
44045;PMS7003;29709;52.396;16.796;2023-12-04T13:11:57;17;13;8
44045;PMS7003;29709;52.396;16.796;2023-12-04T13:15:12;17;16;9
44045;PMS7003;29709;52.396;16.796;2023-12-04T13:18:26;13;13;9
44045;PMS7003;29709;52.396;16.796;2023-12-04T13:21:39;13;11;8
44045;PMS7003;29709;52.396;16.796;2023-12-04T13:24:53;14;12;8
44045;PMS7003;29709;52.396;16.796;2023-12-04T13:28:06;16;13;8
44045;PMS7003;29709;52.396;16.796;2023-12-04T13:31:20;14;12;9
44045;PMS7003;29709;52.396;16.796;2023-12-04T13:34:33;18;14;10
44045;PMS7003;29709;52.396;16.796;2023-12-04T13:37:47;24;16;11
44045;PMS7003;29709;52.396;16.796;2023-12-04T13:41:07;22;19;13
44045;PMS7003;29709;52.396;16.796;2023-12-04T13:44:32;28;25;14
44045;PMS7003;29709;52.396;16.796;2023-12-04T13:47:46;16;15;10
44045;PMS7003;29709;52.396;16.796;2023-12-04T13:50:59;16;13;9
44045;PMS7003;29709;52.396;16.796;2023-12-04T13:54:13;17;14;11
44045;PMS7003;29709;52.396;16.796;2023-12-04T13:57:33;8;2;0
44045;PMS7003;29709;52.396;16.796;2023-12-04T14:00:57;17;16;11
44045;PMS7003;29709;52.396;16.796;2023-12-04T14:04:12;22;17;10
44045;PMS7003;29709;52.396;16.796;2023-12-04T14:07:25;19;14;8
44045;PMS7003;29709;52.396;16.796;2023-12-04T14:10:39;18;11;6
44045;PMS7003;29709;52.396;16.796;2023-12-04T14:13:52;11;9;5
44045;PMS7003;29709;52.396;16.796;2023-12-04T14:17:06;15;13;8
44045;PMS7003;29709;52.396;16.796;2023-12-04T14:20:21;16;15;10
44045;PMS7003;29709;52.396;16.796;2023-12-04T14:23:35;7;6;3
44045;PMS7003;29709;52.396;16.796;2023-12-04T14:26:48;16;10;9
44045;PMS7003;29709;52.396;16.796;2023-12-04T14:30:02;20;20;11
44045;PMS7003;29709;52.396;16.796;2023-12-04T14:33:16;11;7;2
44045;PMS7003;29709;52.396;16.796;2023-12-04T14:36:29;19;17;11
44045;PMS7003;29709;52.396;16.796;2023-12-04T14:39:47;24;19;11
44045;PMS7003;29709;52.396;16.796;2023-12-04T14:43:00;18;15;11
44045;PMS7003;29709;52.396;16.796;2023-12-04T14:46:13;18;14;10
44045;PMS7003;29709;52.396;16.796;2023-12-04T14:49:27;17;15;11
44045;PMS7003;29709;52.396;16.796;2023-12-04T14:52:41;19;16;11
44045;PMS7003;29709;52.396;16.796;2023-12-04T14:56:02;27;23;16
44045;PMS7003;29709;52.396;16.796;2023-12-04T14:59:28;17;13;9
44045;PMS7003;29709;52.396;16.796;2023-12-04T15:02:53;17;15;11
44045;PMS7003;29709;52.396;16.796;2023-12-04T15:06:19;15;15;10
44045;PMS7003;29709;52.396;16.796;2023-12-04T15:09:43;24;23;15
44045;PMS7003;29709;52.396;16.796;2023-12-04T15:13:09;13;10;5
44045;PMS7003;29709;52.396;16.796;2023-12-04T15:16:34;20;18;14
44045;PMS7003;29709;52.396;16.796;2023-12-04T15:19:57;20;19;13
44045;PMS7003;29709;52.396;16.796;2023-12-04T15:23:23;20;18;13
44045;PMS7003;29709;52.396;16.796;2023-12-04T15:26:36;21;20;12
44045;PMS7003;29709;52.396;16.796;2023-12-04T15:29:52;18;13;10
44045;PMS7003;29709;52.396;16.796;2023-12-04T15:33:05;18;16;11
44045;PMS7003;29709;52.396;16.796;2023-12-04T15:36:18;27;19;13
44045;PMS7003;29709;52.396;16.796;2023-12-04T15:39:35;21;19;13
44045;PMS7003;29709;52.396;16.796;2023-12-04T15:42:48;13;13;9
44045;PMS7003;29709;52.396;16.796;2023-12-04T15:46:02;22;17;12
44045;PMS7003;29709;52.396;16.796;2023-12-04T15:49:18;25;23;15
44045;PMS7003;29709;52.396;16.796;2023-12-04T15:52:32;23;21;13
44045;PMS7003;29709;52.396;16.796;2023-12-04T15:55:51;22;20;13
44045;PMS7003;29709;52.396;16.796;2023-12-04T15:59:04;26;21;13
44045;PMS7003;29709;52.396;16.796;2023-12-04T16:02:18;16;12;6
44045;PMS7003;29709;52.396;16.796;2023-12-04T16:05:31;23;19;13
44045;PMS7003;29709;52.396;16.796;2023-12-04T16:08:45;37;24;15
44045;PMS7003;29709;52.396;16.796;2023-12-04T16:11:58;21;18;12
44045;PMS7003;29709;52.396;16.796;2023-12-04T16:15:12;26;20;12
44045;PMS7003;29709;52.396;16.796;2023-12-04T16:21:50;21;17;13
44045;PMS7003;29709;52.396;16.796;2023-12-04T16:25:04;22;20;12
44045;PMS7003;29709;52.396;16.796;2023-12-04T16:28:20;24;18;14
44045;PMS7003;29709;52.396;16.796;2023-12-04T16:31:34;23;22;15
44045;PMS7003;29709;52.396;16.796;2023-12-04T16:34:48;22;19;13
44045;PMS7003;29709;52.396;16.796;2023-12-04T16:38:01;20;17;12
44045;PMS7003;29709;52.396;16.796;2023-12-04T16:41:15;23;20;13
44045;PMS7003;29709;52.396;16.796;2023-12-04T16:44:28;29;21;14
44045;PMS7003;29709;52.396;16.796;2023-12-04T16:47:42;29;25;15
44045;PMS7003;29709;52.396;16.796;2023-12-04T16:50:55;25;21;14
44045;PMS7003;29709;52.396;16.796;2023-12-04T16:54:09;25;22;15
44045;PMS7003;29709;52.396;16.796;2023-12-04T16:57:22;23;18;12
44045;PMS7003;29709;52.396;16.796;2023-12-04T17:00:37;29;24;14
44045;PMS7003;29709;52.396;16.796;2023-12-04T17:03:51;27;21;12
44045;PMS7003;29709;52.396;16.796;2023-12-04T17:07:05;19;15;10
44045;PMS7003;29709;52.396;16.796;2023-12-04T17:10:19;25;23;18
44045;PMS7003;29709;52.396;16.796;2023-12-04T17:13:35;25;21;13
44045;PMS7003;29709;52.396;16.796;2023-12-04T17:16:49;19;17;12
44045;PMS7003;29709;52.396;16.796;2023-12-04T17:20:03;29;23;17
44045;PMS7003;29709;52.396;16.796;2023-12-04T17:23:18;20;18;12
44045;PMS7003;29709;52.396;16.796;2023-12-04T17:26:33;29;23;15
44045;PMS7003;29709;52.396;16.796;2023-12-04T17:29:47;21;20;14
44045;PMS7003;29709;52.396;16.796;2023-12-04T17:33:00;22;19;14
44045;PMS7003;29709;52.396;16.796;2023-12-04T17:36:14;21;17;9
44045;PMS7003;29709;52.396;16.796;2023-12-04T17:39:27;22;22;16
44045;PMS7003;29709;52.396;16.796;2023-12-04T17:42:41;20;16;9
44045;PMS7003;29709;52.396;16.796;2023-12-04T17:45:54;29;24;18
44045;PMS7003;29709;52.396;16.796;2023-12-04T17:49:09;31;22;14
44045;PMS7003;29709;52.396;16.796;2023-12-04T17:52:26;21;16;13
44045;PMS7003;29709;52.396;16.796;2023-12-04T17:55:39;26;21;14
44045;PMS7003;29709;52.396;16.796;2023-12-04T17:58:53;24;17;10
44045;PMS7003;29709;52.396;16.796;2023-12-04T18:02:07;33;29;20
44045;PMS7003;29709;52.396;16.796;2023-12-04T18:05:22;28;25;16
44045;PMS7003;29709;52.396;16.796;2023-12-04T18:08:36;29;25;14
44045;PMS7003;29709;52.396;16.796;2023-12-04T18:11:49;20;15;7
44045;PMS7003;29709;52.396;16.796;2023-12-04T18:15:04;6;3;0
44045;PMS7003;29709;52.396;16.796;2023-12-04T18:18:18;23;18;11
44045;PMS7003;29709;52.396;16.796;2023-12-04T18:21:32;33;25;18
44045;PMS7003;29709;52.396;16.796;2023-12-04T18:24:46;34;29;18
44045;PMS7003;29709;52.396;16.796;2023-12-04T18:27:59;29;28;18
44045;PMS7003;29709;52.396;16.796;2023-12-04T18:31:17;15;11;7
44045;PMS7003;29709;52.396;16.796;2023-12-04T18:34:32;19;14;10
44045;PMS7003;29709;52.396;16.796;2023-12-04T18:41:09;31;26;17
44045;PMS7003;29709;52.396;16.796;2023-12-04T18:44:23;24;23;16
44045;PMS7003;29709;52.396;16.796;2023-12-04T18:47:38;30;25;16
44045;PMS7003;29709;52.396;16.796;2023-12-04T18:50:57;37;26;18
44045;PMS7003;29709;52.396;16.796;2023-12-04T18:54:11;24;23;15
44045;PMS7003;29709;52.396;16.796;2023-12-04T18:57:26;20;19;13
44045;PMS7003;29709;52.396;16.796;2023-12-04T19:00:39;25;19;13
44045;PMS7003;29709;52.396;16.796;2023-12-04T19:03:53;25;23;15
44045;PMS7003;29709;52.396;16.796;2023-12-04T19:07:07;28;23;16
44045;PMS7003;29709;52.396;16.796;2023-12-04T19:10:21;22;20;14
44045;PMS7003;29709;52.396;16.796;2023-12-04T19:13:34;33;28;19
44045;PMS7003;29709;52.396;16.796;2023-12-04T19:16:49;19;15;9
44045;PMS7003;29709;52.396;16.796;2023-12-04T19:20:03;24;20;14
44045;PMS7003;29709;52.396;16.796;2023-12-04T19:23:19;26;20;13
44045;PMS7003;29709;52.396;16.796;2023-12-04T19:26:33;26;21;15
44045;PMS7003;29709;52.396;16.796;2023-12-04T19:29:49;32;24;17
44045;PMS7003;29709;52.396;16.796;2023-12-04T19:33:11;26;23;16
44045;PMS7003;29709;52.396;16.796;2023-12-04T19:36:25;28;23;15
44045;PMS7003;29709;52.396;16.796;2023-12-04T19:39:44;24;23;16
44045;PMS7003;29709;52.396;16.796;2023-12-04T19:42:57;24;15;10
44045;PMS7003;29709;52.396;16.796;2023-12-04T19:46:11;29;25;16
44045;PMS7003;29709;52.396;16.796;2023-12-04T19:49:24;28;24;16
44045;PMS7003;29709;52.396;16.796;2023-12-04T19:52:38;32;26;19
44045;PMS7003;29709;52.396;16.796;2023-12-04T19:55:52;26;19;10
44045;PMS7003;29709;52.396;16.796;2023-12-04T19:59:06;33;24;16
44045;PMS7003;29709;52.396;16.796;2023-12-04T20:02:20;15;14;12
44045;PMS7003;29709;52.396;16.796;2023-12-04T20:05:35;32;24;16
44045;PMS7003;29709;52.396;16.796;2023-12-04T20:08:49;27;22;15
44045;PMS7003;29709;52.396;16.796;2023-12-04T20:12:03;27;24;17
44045;PMS7003;29709;52.396;16.796;2023-12-04T20:15:17;20;18;10
44045;PMS7003;29709;52.396;16.796;2023-12-04T20:18:30;15;11;5
44045;PMS7003;29709;52.396;16.796;2023-12-04T20:21:43;28;24;16
44045;PMS7003;29709;52.396;16.796;2023-12-04T20:24:57;23;20;12
44045;PMS7003;29709;52.396;16.796;2023-12-04T20:28:10;26;18;11
44045;PMS7003;29709;52.396;16.796;2023-12-04T20:31:30;29;24;15
44045;PMS7003;29709;52.396;16.796;2023-12-04T20:34:43;30;23;16
44045;PMS7003;29709;52.396;16.796;2023-12-04T20:37:57;19;17;12
44045;PMS7003;29709;52.396;16.796;2023-12-04T20:41:10;26;25;16
44045;PMS7003;29709;52.396;16.796;2023-12-04T20:44:24;26;21;14
44045;PMS7003;29709;52.396;16.796;2023-12-04T20:47:37;29;24;17
44045;PMS7003;29709;52.396;16.796;2023-12-04T20:50:51;31;25;17
44045;PMS7003;29709;52.396;16.796;2023-12-04T20:54:05;30;23;15
44045;PMS7003;29709;52.396;16.796;2023-12-04T20:57:19;24;21;14
44045;PMS7003;29709;52.396;16.796;2023-12-04T21:00:35;31;24;17
44045;PMS7003;29709;52.396;16.796;2023-12-04T21:03:52;25;22;14
44045;PMS7003;29709;52.396;16.796;2023-12-04T21:07:06;26;20;14
44045;PMS7003;29709;52.396;16.796;2023-12-04T21:10:23;27;22;14
44045;PMS7003;29709;52.396;16.796;2023-12-04T21:13:37;26;20;15
44045;PMS7003;29709;52.396;16.796;2023-12-04T21:16:51;15;7;3
44045;PMS7003;29709;52.396;16.796;2023-12-04T21:20:05;24;20;14